createdAt,value
2022-12-14T00:00:28.685Z,9.745442
2022-12-14T00:01:28.608Z,9.745526
2022-12-14T00:02:28.784Z,9.745515
2022-12-14T00:03:28.688Z,9.745473
2022-12-14T00:04:28.594Z,9.745543
2022-12-14T00:05:28.584Z,9.745483
2022-12-14T00:06:28.579Z,9.745515
2022-12-14T00:07:28.584Z,9.745403
2022-12-14T00:08:29.132Z,9.745338
2022-12-14T00:09:28.564Z,9.745447
2022-12-14T00:10:28.558Z,9.745534
2022-12-14T00:11:28.550Z,9.745470
2022-12-14T00:12:28.542Z,9.745234
2022-12-14T00:13:28.564Z,9.745483
2022-12-14T00:14:28.528Z,9.745496
2022-12-14T00:15:28.613Z,9.745474
2022-12-14T00:16:28.526Z,9.745566
2022-12-14T00:17:28.506Z,9.745578
2022-12-14T00:18:29.065Z,9.745465
2022-12-14T00:19:28.499Z,9.745551
2022-12-14T00:20:28.482Z,9.744875
2022-12-14T00:21:28.501Z,9.744462
2022-12-14T00:22:28.476Z,9.745139
2022-12-14T00:23:28.490Z,9.745208
2022-12-14T00:24:28.455Z,9.745258
2022-12-14T00:25:28.445Z,9.745310
2022-12-14T00:26:28.440Z,9.745343
2022-12-14T00:27:28.421Z,9.745280
2022-12-14T00:28:29.828Z,9.745472
2022-12-14T00:29:28.419Z,9.745483
2022-12-14T00:30:28.415Z,9.745547
2022-12-14T00:31:28.434Z,9.745510
2022-12-14T00:32:28.398Z,9.745368
2022-12-14T00:33:28.428Z,9.745434
2022-12-14T00:34:28.383Z,9.745589
2022-12-14T00:35:28.380Z,9.745038
2022-12-14T00:36:28.378Z,9.744960
2022-12-14T00:37:28.368Z,9.745064
2022-12-14T00:38:28.754Z,9.745565
2022-12-14T00:39:28.377Z,9.745296
2022-12-14T00:40:28.347Z,9.745480
2022-12-14T00:41:28.334Z,9.745453
2022-12-14T00:42:28.327Z,9.745296
2022-12-14T00:43:28.321Z,9.745181
2022-12-14T00:44:28.336Z,9.745278
2022-12-14T00:45:28.297Z,9.745068
2022-12-14T00:46:28.354Z,9.744866
2022-12-14T00:47:28.283Z,9.745193
2022-12-14T00:48:28.649Z,9.745302
2022-12-14T00:49:28.297Z,9.744701
2022-12-14T00:50:28.264Z,9.744811
2022-12-14T00:51:28.255Z,9.745132
2022-12-14T00:52:28.248Z,9.745317
2022-12-14T00:53:28.240Z,9.745182
2022-12-14T00:54:28.260Z,9.745354
2022-12-14T00:55:28.229Z,9.745333
2022-12-14T00:56:28.221Z,9.745377
2022-12-14T00:57:28.218Z,9.745379
2022-12-14T00:58:28.575Z,9.745305
2022-12-14T00:59:28.227Z,9.745417
2022-12-14T01:00:28.210Z,9.745372
2022-12-14T01:01:28.273Z,9.745421
2022-12-14T01:02:28.265Z,9.745398
2022-12-14T01:03:28.681Z,9.745333
2022-12-14T01:04:28.196Z,9.745533
2022-12-14T01:05:28.161Z,9.745346
2022-12-14T01:06:28.155Z,9.745440
2022-12-14T01:07:28.152Z,9.745266
2022-12-14T01:08:28.137Z,9.745361
2022-12-14T01:09:28.160Z,9.745370
2022-12-14T01:10:28.121Z,9.745359
2022-12-14T01:11:28.112Z,9.745457
2022-12-14T01:12:28.107Z,9.745037
2022-12-14T01:13:28.539Z,9.745319
2022-12-14T01:14:28.130Z,9.745403
2022-12-14T01:15:28.081Z,9.745397
2022-12-14T01:16:28.134Z,9.745505
2022-12-14T01:17:28.071Z,9.745746
2022-12-14T01:18:28.065Z,9.745719
2022-12-14T01:19:28.091Z,9.745601
2022-12-14T01:20:28.046Z,9.745471
2022-12-14T01:21:28.048Z,9.745434
2022-12-14T01:22:28.031Z,9.745493
2022-12-14T01:23:28.490Z,9.745384
2022-12-14T01:24:28.048Z,9.745491
2022-12-14T01:25:28.011Z,9.745363
2022-12-14T01:26:28.003Z,9.745431
2022-12-14T01:27:27.992Z,9.745400
2022-12-14T01:28:27.986Z,9.745373
2022-12-14T01:29:27.979Z,9.745420
2022-12-14T01:30:27.998Z,9.745399
2022-12-14T01:31:28.001Z,9.745408
2022-12-14T01:32:27.961Z,9.745570
2022-12-14T01:33:28.316Z,9.745554
2022-12-14T01:34:27.940Z,9.745727
2022-12-14T01:35:28.968Z,9.745403
2022-12-14T01:36:27.934Z,9.745385
2022-12-14T01:37:27.931Z,9.745442
2022-12-14T01:38:27.915Z,9.745557
2022-12-14T01:39:27.910Z,9.745489
2022-12-14T01:40:27.932Z,9.745444
2022-12-14T01:41:27.895Z,9.745475
2022-12-14T01:42:27.890Z,9.745093
2022-12-14T01:43:28.274Z,9.745470
2022-12-14T01:44:27.888Z,9.745426
2022-12-14T01:45:27.890Z,9.745156
2022-12-14T01:46:27.900Z,9.745131
2022-12-14T01:47:27.864Z,9.745168
2022-12-14T01:48:27.847Z,9.745140
2022-12-14T01:49:27.846Z,9.744976
2022-12-14T01:50:27.854Z,9.744959
2022-12-14T01:51:27.817Z,9.745565
2022-12-14T01:52:27.820Z,9.745614
2022-12-14T01:53:28.440Z,9.745890
2022-12-14T01:54:27.804Z,9.745487
2022-12-14T01:55:27.817Z,9.745423
2022-12-14T01:56:27.788Z,9.745354
2022-12-14T01:57:27.779Z,9.745128
2022-12-14T01:58:27.776Z,9.745749
2022-12-14T01:59:27.778Z,9.745321
2022-12-14T02:00:27.782Z,9.745376
2022-12-14T02:01:27.811Z,9.745520
2022-12-14T02:02:27.884Z,9.745455
2022-12-14T02:03:28.341Z,9.745323
2022-12-14T02:04:27.731Z,9.745303
2022-12-14T02:05:27.743Z,9.745802
2022-12-14T02:06:27.709Z,9.745637
2022-12-14T02:07:27.702Z,9.745544
2022-12-14T02:08:27.699Z,9.745724
2022-12-14T02:09:27.685Z,9.745841
2022-12-14T02:10:27.714Z,9.745337
2022-12-14T02:11:27.671Z,9.745449
2022-12-14T02:12:27.670Z,9.745541
2022-12-14T02:13:28.020Z,9.745687
2022-12-14T02:14:27.655Z,9.745609
2022-12-14T02:15:27.673Z,9.745757
2022-12-14T02:16:27.684Z,9.745634
2022-12-14T02:17:27.627Z,9.745634
2022-12-14T02:18:27.629Z,9.745579
2022-12-14T02:19:27.620Z,9.745432
2022-12-14T02:20:27.647Z,9.745337
2022-12-14T02:21:27.604Z,9.745356
2022-12-14T02:22:27.595Z,9.745049
2022-12-14T02:23:27.836Z,9.745200
2022-12-14T02:24:27.575Z,9.744986
2022-12-14T02:25:27.566Z,9.745007
2022-12-14T02:26:27.583Z,9.745129
2022-12-14T02:27:27.571Z,9.745331
2022-12-14T02:28:27.552Z,9.745259
2022-12-14T02:29:27.539Z,9.745356
2022-12-14T02:30:27.537Z,9.745638
2022-12-14T02:31:27.593Z,9.745595
2022-12-14T02:32:27.526Z,9.745224
2022-12-14T02:33:27.874Z,9.745429
2022-12-14T02:34:27.505Z,9.745167
2022-12-14T02:35:27.500Z,9.745774
2022-12-14T02:36:27.518Z,9.745865
2022-12-14T02:37:27.486Z,9.745957
2022-12-14T02:38:27.475Z,9.745346
2022-12-14T02:39:27.469Z,9.745740
2022-12-14T02:40:27.467Z,9.745709
2022-12-14T02:41:27.485Z,9.745504
2022-12-14T02:42:27.445Z,9.745086
2022-12-14T02:43:27.823Z,9.745068
2022-12-14T02:44:27.429Z,9.745438
2022-12-14T02:45:27.426Z,9.744902
2022-12-14T02:46:27.455Z,9.744829
2022-12-14T02:47:27.433Z,9.744827
2022-12-14T02:48:27.399Z,9.744947
2022-12-14T02:49:27.394Z,9.745315
2022-12-14T02:50:27.388Z,9.745470
2022-12-14T02:51:27.409Z,9.745712
2022-12-14T02:52:27.374Z,9.745440
2022-12-14T02:53:27.681Z,9.745311
2022-12-14T02:54:27.360Z,9.745377
2022-12-14T02:55:27.349Z,9.745350
2022-12-14T02:56:27.344Z,9.744926
2022-12-14T02:57:27.368Z,9.744926
2022-12-14T02:58:27.332Z,9.745421
2022-12-14T02:59:27.323Z,9.744544
2022-12-14T03:00:27.319Z,9.744772
2022-12-14T03:01:27.432Z,9.744969
2022-12-14T03:02:27.484Z,9.744969
2022-12-14T03:03:27.618Z,9.745399
2022-12-14T03:04:27.295Z,9.745145
2022-12-14T03:05:27.279Z,9.745746
2022-12-14T03:06:27.269Z,9.745363
2022-12-14T03:07:27.284Z,9.745449
2022-12-14T03:08:27.252Z,9.745383
2022-12-14T03:09:27.250Z,9.745324
2022-12-14T03:10:27.245Z,9.746039
2022-12-14T03:11:27.231Z,9.745481
2022-12-14T03:12:27.252Z,9.745424
2022-12-14T03:13:27.641Z,9.744986
2022-12-14T03:14:27.212Z,9.745205
2022-12-14T03:15:27.206Z,9.745581
2022-12-14T03:16:27.250Z,9.745631
2022-12-14T03:17:27.220Z,9.745574
2022-12-14T03:18:27.194Z,9.745490
2022-12-14T03:19:27.171Z,9.745738
2022-12-14T03:20:28.165Z,9.745596
2022-12-14T03:21:27.159Z,9.745749
2022-12-14T03:22:27.181Z,9.745517
2022-12-14T03:23:27.419Z,9.745631
2022-12-14T03:24:27.139Z,9.745555
2022-12-14T03:25:27.138Z,9.745543
2022-12-14T03:26:27.128Z,9.745265
2022-12-14T03:27:27.148Z,9.745212
2022-12-14T03:28:27.115Z,9.745380
2022-12-14T03:29:27.101Z,9.745513
2022-12-14T03:30:58.416Z,9.745653
2022-12-14T03:31:29.127Z,9.745619
2022-12-14T03:32:27.080Z,9.745497
2022-12-14T03:33:27.554Z,9.745577
2022-12-14T03:34:27.066Z,9.745967
2022-12-14T03:35:27.057Z,9.745538
2022-12-14T03:36:27.050Z,9.745505
2022-12-14T03:37:27.047Z,9.746474
2022-12-14T03:38:27.057Z,9.746107
2022-12-14T03:39:27.028Z,9.745809
2022-12-14T03:40:27.024Z,9.745304
2022-12-14T03:41:27.011Z,9.746101
2022-12-14T03:42:27.001Z,9.746041
2022-12-14T03:43:27.439Z,9.745930
2022-12-14T03:44:26.992Z,9.745708
2022-12-14T03:45:27.026Z,9.745388
2022-12-14T03:46:26.970Z,9.745471
2022-12-14T03:47:26.961Z,9.745458
2022-12-14T03:48:26.982Z,9.745331
2022-12-14T03:49:26.950Z,9.745817
2022-12-14T03:50:26.946Z,9.746008
2022-12-14T03:51:26.934Z,9.745815
2022-12-14T03:52:26.920Z,9.745610
2022-12-14T03:53:27.286Z,9.745348
2022-12-14T03:54:26.908Z,9.745415
2022-12-14T03:55:26.903Z,9.745540
2022-12-14T03:56:26.896Z,9.745514
2022-12-14T03:57:26.889Z,9.745461
2022-12-14T03:58:26.907Z,9.745383
2022-12-14T03:59:26.871Z,9.745377
2022-12-14T04:00:26.868Z,9.745336
2022-12-14T04:01:26.923Z,9.745191
2022-12-14T04:02:27.022Z,9.745303
2022-12-14T04:03:27.273Z,9.745442
2022-12-14T04:04:26.838Z,9.745024
2022-12-14T04:05:26.834Z,9.745318
2022-12-14T04:06:26.824Z,9.744660
2022-12-14T04:07:26.816Z,9.745226
2022-12-14T04:08:26.840Z,9.745391
2022-12-14T04:09:26.805Z,9.745318
2022-12-14T04:10:26.797Z,9.745870
2022-12-14T04:11:26.796Z,9.745592
2022-12-14T04:12:26.787Z,9.745422
2022-12-14T04:13:27.214Z,9.745337
2022-12-14T04:14:26.773Z,9.745449
2022-12-14T04:15:26.764Z,9.745422
2022-12-14T04:16:26.833Z,9.745201
2022-12-14T04:17:26.746Z,9.745255
2022-12-14T04:18:26.779Z,9.745235
2022-12-14T04:19:26.729Z,9.745286
2022-12-14T04:20:26.726Z,9.745412
2022-12-14T04:21:26.716Z,9.745307
2022-12-14T04:22:26.714Z,9.745334
2022-12-14T04:23:27.051Z,9.745295
2022-12-14T04:24:26.695Z,9.745247
2022-12-14T04:25:26.688Z,9.745377
2022-12-14T04:26:26.694Z,9.745409
2022-12-14T04:27:26.669Z,9.745293
2022-12-14T04:28:26.665Z,9.745328
2022-12-14T04:29:26.688Z,9.745293
2022-12-14T04:30:26.648Z,9.745429
2022-12-14T04:31:26.705Z,9.745279
2022-12-14T04:32:26.668Z,9.745218
2022-12-14T04:33:27.172Z,9.745362
2022-12-14T04:34:26.645Z,9.745380
2022-12-14T04:35:26.615Z,9.745480
2022-12-14T04:36:26.606Z,9.745490
2022-12-14T04:37:26.595Z,9.745600
2022-12-14T04:38:26.587Z,9.745672
2022-12-14T04:39:26.604Z,9.745311
2022-12-14T04:40:26.601Z,9.745280
2022-12-14T04:41:26.569Z,9.745309
2022-12-14T04:42:26.563Z,9.745104
2022-12-14T04:43:26.811Z,9.745049
2022-12-14T04:44:26.574Z,9.745358
2022-12-14T04:45:26.536Z,9.745419
2022-12-14T04:46:26.538Z,9.745869
2022-12-14T04:47:26.523Z,9.745591
2022-12-14T04:48:26.523Z,9.745572
2022-12-14T04:49:26.534Z,9.745420
2022-12-14T04:50:26.498Z,9.745014
2022-12-14T04:51:26.495Z,9.745690
2022-12-14T04:52:26.482Z,9.745431
2022-12-14T04:53:26.858Z,9.745429
2022-12-14T04:54:26.497Z,9.745261
2022-12-14T04:55:26.465Z,9.745409
2022-12-14T04:56:26.456Z,9.745523
2022-12-14T04:57:26.449Z,9.745613
2022-12-14T04:58:26.445Z,9.744801
2022-12-14T04:59:26.464Z,9.745496
2022-12-14T05:00:26.432Z,9.745621
2022-12-14T05:01:26.537Z,9.745123
2022-12-14T05:02:26.507Z,9.745717
2022-12-14T05:03:26.710Z,9.745543
2022-12-14T05:04:26.425Z,9.745449
2022-12-14T05:05:26.393Z,9.745772
2022-12-14T05:06:26.389Z,9.746007
2022-12-14T05:07:26.381Z,9.745400
2022-12-14T05:08:26.368Z,9.745546
2022-12-14T05:09:26.394Z,9.745562
2022-12-14T05:10:26.356Z,9.745802
2022-12-14T05:11:54.910Z,9.745890
2022-12-14T05:12:28.350Z,9.745646
2022-12-14T05:13:26.795Z,9.745562
2022-12-14T05:14:26.343Z,9.745665
2022-12-14T05:15:27.321Z,9.745882
2022-12-14T05:16:26.384Z,9.745543
2022-12-14T05:17:26.311Z,9.745487
2022-12-14T05:18:26.300Z,9.746126
2022-12-14T05:19:26.572Z,9.746274
2022-12-14T05:20:26.293Z,9.746282
2022-12-14T05:21:26.283Z,9.745790
2022-12-14T05:22:26.279Z,9.745702
2022-12-14T05:23:26.709Z,9.745605
2022-12-14T05:24:26.286Z,9.745483
2022-12-14T05:25:26.250Z,9.745399
2022-12-14T05:26:26.250Z,9.745483
2022-12-14T05:27:26.234Z,9.745180
2022-12-14T05:28:26.227Z,9.745474
2022-12-14T05:29:26.250Z,9.745457
2022-12-14T05:30:26.264Z,9.745406
2022-12-14T05:31:26.207Z,9.744912
2022-12-14T05:32:26.210Z,9.744816
2022-12-14T05:33:26.409Z,9.745341
2022-12-14T05:34:26.223Z,9.745415
2022-12-14T05:35:26.179Z,9.745422
2022-12-14T05:36:26.186Z,9.745399
2022-12-14T05:37:26.167Z,9.745251
2022-12-14T05:38:26.151Z,9.745194
2022-12-14T05:39:26.189Z,9.745222
2022-12-14T05:40:26.143Z,9.745118
2022-12-14T05:41:26.134Z,9.745252
2022-12-14T05:42:26.129Z,9.745391
2022-12-14T05:43:26.507Z,9.745250
2022-12-14T05:44:26.095Z,9.745259
2022-12-14T05:45:27.126Z,9.745199
2022-12-14T05:46:26.130Z,9.745338
2022-12-14T05:47:26.098Z,9.745455
2022-12-14T05:48:26.103Z,9.745425
2022-12-14T05:49:26.077Z,9.745260
2022-12-14T05:50:26.090Z,9.745379
2022-12-14T05:51:26.064Z,9.745453
2022-12-14T05:52:26.059Z,9.745260
2022-12-14T05:53:26.374Z,9.745027
2022-12-14T05:54:26.040Z,9.744962
2022-12-14T05:55:26.065Z,9.745240
2022-12-14T05:56:26.031Z,9.745181
2022-12-14T05:57:26.028Z,9.745276
2022-12-14T05:58:26.017Z,9.745214
2022-12-14T05:59:26.009Z,9.745175
2022-12-14T06:00:26.032Z,9.745025
2022-12-14T06:01:26.064Z,9.745379
2022-12-14T06:02:26.124Z,9.745388
2022-12-14T06:03:26.437Z,9.745054
2022-12-14T06:04:26.187Z,9.745217
2022-12-14T06:05:25.990Z,9.745232
2022-12-14T06:06:25.954Z,9.745173
2022-12-14T06:07:27.927Z,9.745049
2022-12-14T06:08:26.935Z,9.745273
2022-12-14T06:09:25.930Z,9.745111
2022-12-14T06:10:25.948Z,9.745292
2022-12-14T06:11:25.917Z,9.745086
2022-12-14T06:12:25.914Z,9.744611
2022-12-14T06:13:26.320Z,9.744706
2022-12-14T06:14:25.893Z,9.744970
2022-12-14T06:15:30.715Z,9.745081
2022-12-14T06:16:27.924Z,9.745005
2022-12-14T06:17:25.872Z,9.745494
2022-12-14T06:18:25.866Z,9.745231
2022-12-14T06:19:25.856Z,9.744661
2022-12-14T06:20:25.870Z,9.745212
2022-12-14T06:21:25.838Z,9.744517
2022-12-14T06:22:25.846Z,9.744679
2022-12-14T06:23:26.283Z,9.745348
2022-12-14T06:24:25.820Z,9.745490
2022-12-14T06:25:25.838Z,9.745008
2022-12-14T06:26:25.806Z,9.745027
2022-12-14T06:27:25.797Z,9.744775
2022-12-14T06:28:25.793Z,9.744729
2022-12-14T06:29:25.779Z,9.744788
2022-12-14T06:30:25.802Z,9.744720
2022-12-14T06:31:25.793Z,9.744751
2022-12-14T06:32:25.763Z,9.744820
2022-12-14T06:33:26.126Z,9.744700
2022-12-14T06:34:28.641Z,9.744700
2022-12-14T06:35:26.768Z,9.744307
2022-12-14T06:36:25.735Z,9.744434
2022-12-14T06:37:25.726Z,9.744390
2022-12-14T06:38:25.715Z,9.744390
2022-12-14T06:39:25.713Z,9.744390
2022-12-14T06:40:25.727Z,9.744390
2022-12-14T06:41:25.695Z,9.744390
2022-12-14T06:42:25.689Z,9.744447
2022-12-14T06:43:26.103Z,9.744412
2022-12-14T06:44:25.676Z,9.744431
2022-12-14T06:45:25.695Z,9.744431
2022-12-14T06:46:25.705Z,9.744431
2022-12-14T06:47:25.659Z,9.744431
2022-12-14T06:48:25.647Z,9.744379
2022-12-14T06:49:25.638Z,9.744379
2022-12-14T06:50:25.666Z,9.744379
2022-12-14T06:51:25.621Z,9.744379
2022-12-14T06:52:27.218Z,9.744379
2022-12-14T06:53:27.012Z,9.744379
2022-12-14T06:54:25.599Z,9.744379
2022-12-14T06:55:25.626Z,9.744379
2022-12-14T06:56:25.639Z,9.744379
2022-12-14T06:57:25.576Z,9.744379
2022-12-14T06:58:30.918Z,9.744379
2022-12-14T06:59:27.596Z,9.744379
2022-12-14T07:00:25.558Z,9.744379
2022-12-14T07:01:25.729Z,9.744379
2022-12-14T07:02:26.738Z,9.744379
2022-12-14T07:03:25.929Z,9.744379
2022-12-14T07:04:25.531Z,9.744379
2022-12-14T07:05:25.523Z,9.744379
2022-12-14T07:06:25.540Z,9.744379
2022-12-14T07:07:25.508Z,9.744379
2022-12-14T07:08:25.497Z,9.744379
2022-12-14T07:09:25.492Z,9.744379
2022-12-14T07:10:25.485Z,9.744379
2022-12-14T07:11:25.504Z,9.744379
2022-12-14T07:12:25.471Z,9.744379
2022-12-14T07:13:25.724Z,9.745244
2022-12-14T07:14:25.458Z,9.745343
2022-12-14T07:15:25.447Z,9.745409
2022-12-14T07:16:25.519Z,9.745489
2022-12-14T07:17:25.430Z,9.745661
2022-12-14T07:18:25.427Z,9.746491
2022-12-14T07:19:25.417Z,9.746361
2022-12-14T07:20:25.415Z,9.745495
2022-12-14T07:21:25.428Z,9.745737
2022-12-14T07:22:25.399Z,9.745757
2022-12-14T07:23:28.014Z,9.746025
2022-12-14T07:24:26.382Z,9.745732
2022-12-14T07:25:25.370Z,9.745399
2022-12-14T07:26:26.398Z,9.745363
2022-12-14T07:27:25.361Z,9.745417
2022-12-14T07:28:25.365Z,9.745407
2022-12-14T07:29:28.400Z,9.745615
2022-12-14T07:30:26.338Z,9.745977
2022-12-14T07:31:25.430Z,9.745681
2022-12-14T07:32:25.323Z,9.745511
2022-12-14T07:33:25.680Z,9.745599
2022-12-14T07:34:25.311Z,9.745517
2022-12-14T07:35:25.295Z,9.745642
2022-12-14T07:36:26.321Z,9.745613
2022-12-14T07:37:25.291Z,9.745427
2022-12-14T07:38:25.295Z,9.745773
2022-12-14T07:39:25.276Z,9.745488
2022-12-14T07:40:25.271Z,9.745676
2022-12-14T07:41:25.286Z,9.745702
2022-12-14T07:42:25.258Z,9.745577
2022-12-14T07:43:25.646Z,9.745599
2022-12-14T07:44:25.250Z,9.745658
2022-12-14T07:45:25.236Z,9.745552
2022-12-14T07:46:25.318Z,9.745462
2022-12-14T07:47:25.218Z,9.745511
2022-12-14T07:48:25.212Z,9.745501
2022-12-14T07:49:25.204Z,9.745886
2022-12-14T07:50:26.199Z,9.745732
2022-12-14T07:51:25.221Z,9.745664
2022-12-14T07:52:25.186Z,9.745422
2022-12-14T07:53:25.475Z,9.745459
2022-12-14T07:54:25.172Z,9.745502
2022-12-14T07:55:25.163Z,9.745778
2022-12-14T07:56:25.192Z,9.745684
2022-12-14T07:57:25.153Z,9.745742
2022-12-14T07:58:25.143Z,9.745815
2022-12-14T07:59:25.138Z,9.745723
2022-12-14T08:00:25.130Z,9.745702
2022-12-14T08:01:25.265Z,9.745566
2022-12-14T08:02:25.276Z,9.745544
2022-12-14T08:03:25.103Z,9.745523
2022-12-14T08:04:25.166Z,9.745546
2022-12-14T08:05:25.088Z,9.745592
2022-12-14T08:06:25.310Z,9.745367
2022-12-14T08:07:25.063Z,9.745647
2022-12-14T08:08:26.064Z,9.745713
2022-12-14T08:09:25.053Z,9.745654
2022-12-14T08:10:25.052Z,9.745705
2022-12-14T08:11:25.038Z,9.745565
2022-12-14T08:12:25.060Z,9.745529
2022-12-14T08:13:25.029Z,9.745633
2022-12-14T08:14:25.026Z,9.745539
2022-12-14T08:15:25.018Z,9.745470
2022-12-14T08:16:25.043Z,9.745550
2022-12-14T08:17:25.025Z,9.745677
2022-12-14T08:18:24.992Z,9.745760
2022-12-14T08:19:24.989Z,9.745716
2022-12-14T08:20:24.989Z,9.745176
2022-12-14T08:21:24.974Z,9.745339
2022-12-14T08:22:24.990Z,9.745457
2022-12-14T08:23:24.959Z,9.745596
2022-12-14T08:24:24.949Z,9.745544
2022-12-14T08:25:24.947Z,9.745642
2022-12-14T08:26:26.425Z,9.745544
2022-12-14T08:27:25.950Z,9.745470
2022-12-14T08:28:24.921Z,9.745331
2022-12-14T08:29:24.918Z,9.745531
2022-12-14T08:30:24.909Z,9.745304
2022-12-14T08:31:25.001Z,9.745328
2022-12-14T08:32:27.282Z,9.745417
2022-12-14T08:33:25.899Z,9.745614
2022-12-14T08:34:24.876Z,9.745421
2022-12-14T08:35:24.875Z,9.745524
2022-12-14T08:36:24.864Z,9.745561
2022-12-14T08:37:24.878Z,9.745341
2022-12-14T08:38:24.847Z,9.745521
2022-12-14T08:39:24.829Z,9.745593
2022-12-14T08:40:25.912Z,9.745400
2022-12-14T08:41:24.826Z,9.745338
2022-12-14T08:42:24.846Z,9.745359
2022-12-14T08:43:25.248Z,9.745556
2022-12-14T08:44:25.823Z,9.745638
2022-12-14T08:45:24.791Z,9.745573
2022-12-14T08:46:24.816Z,9.745249
2022-12-14T08:47:25.805Z,9.745404
2022-12-14T08:48:24.774Z,9.745371
2022-12-14T08:49:30.545Z,9.745681
2022-12-14T08:50:26.756Z,9.745584
2022-12-14T08:51:24.746Z,9.745545
2022-12-14T08:52:24.766Z,9.745631
2022-12-14T08:53:24.739Z,9.745726
2022-12-14T08:54:24.733Z,9.745633
2022-12-14T08:55:29.231Z,9.745630
2022-12-14T08:56:26.723Z,9.745589
2022-12-14T08:57:24.730Z,9.745523
2022-12-14T08:58:24.700Z,9.745475
2022-12-14T08:59:52.255Z,9.745192
2022-12-14T09:00:26.782Z,9.745198
2022-12-14T09:01:30.331Z,9.745107
2022-12-14T09:02:26.819Z,9.745273
2022-12-14T09:03:24.664Z,9.745272
2022-12-14T09:04:24.658Z,9.744923
2022-12-14T09:05:24.645Z,9.745310
2022-12-14T09:06:24.645Z,9.745300
2022-12-14T09:07:24.657Z,9.745255
2022-12-14T09:08:24.633Z,9.745358
2022-12-14T09:09:24.614Z,9.745277
2022-12-14T09:10:25.610Z,9.745110
2022-12-14T09:11:24.602Z,9.745185
2022-12-14T09:12:24.620Z,9.745343
2022-12-14T09:13:24.588Z,9.745458
2022-12-14T09:14:24.589Z,9.745232
2022-12-14T09:15:24.571Z,9.745121
2022-12-14T09:16:24.626Z,9.745256
2022-12-14T09:17:24.593Z,9.745081
2022-12-14T09:18:24.555Z,9.745170
2022-12-14T09:19:24.547Z,9.745689
2022-12-14T09:20:24.535Z,9.745771
2022-12-14T09:21:24.526Z,9.746126
2022-12-14T09:22:24.677Z,9.745556
2022-12-14T09:23:24.515Z,9.745478
2022-12-14T09:24:24.522Z,9.745358
2022-12-14T09:25:24.502Z,9.745437
2022-12-14T09:26:24.499Z,9.745420
2022-12-14T09:27:24.519Z,9.745248
2022-12-14T09:28:24.482Z,9.745223
2022-12-14T09:29:24.484Z,9.745223
2022-12-14T09:30:26.795Z,9.745609
2022-12-14T09:31:25.562Z,9.745960
2022-12-14T09:32:24.513Z,9.745782
2022-12-14T09:33:24.444Z,9.745190
2022-12-14T09:34:24.440Z,9.745809
2022-12-14T09:35:24.430Z,9.745510
2022-12-14T09:36:24.421Z,9.745177
2022-12-14T09:37:24.443Z,9.745018
2022-12-14T09:38:24.413Z,9.745266
2022-12-14T09:39:24.403Z,9.745826
2022-12-14T09:40:24.410Z,9.745771
2022-12-14T09:41:24.390Z,9.745771
2022-12-14T09:42:24.383Z,9.745771
2022-12-14T09:43:24.400Z,9.745771
2022-12-14T09:44:24.378Z,9.745771
2022-12-14T09:45:24.434Z,9.745771
2022-12-14T09:46:24.351Z,9.745771
2022-12-14T09:47:24.344Z,9.745771
2022-12-14T09:48:24.363Z,9.745771
2022-12-14T09:49:24.330Z,9.745771
2022-12-14T09:50:24.326Z,9.745771
2022-12-14T09:51:24.339Z,9.745771
2022-12-14T09:52:24.310Z,9.745771
2022-12-14T09:53:24.324Z,9.745771
2022-12-14T09:54:24.316Z,9.745771
2022-12-14T09:55:24.288Z,9.745771
2022-12-14T09:56:24.281Z,9.745771
2022-12-14T09:57:24.274Z,9.745771
2022-12-14T09:58:24.318Z,9.745208
2022-12-14T09:59:24.258Z,9.745915
2022-12-14T10:00:24.251Z,9.745478
2022-12-14T10:01:24.408Z,9.745125
2022-12-14T10:02:32.483Z,9.745220
2022-12-14T10:03:26.504Z,9.745459
2022-12-14T10:04:24.246Z,9.745609
2022-12-14T10:05:24.218Z,9.745827
2022-12-14T10:06:24.211Z,9.745293
2022-12-14T10:07:24.203Z,9.745510
2022-12-14T10:08:24.223Z,9.745736
2022-12-14T10:09:24.189Z,9.745788
2022-12-14T10:10:24.182Z,9.745723
2022-12-14T10:11:24.173Z,9.745393
2022-12-14T10:12:24.945Z,9.744835
2022-12-14T10:13:24.175Z,9.745391
2022-12-14T10:14:25.153Z,9.745451
2022-12-14T10:15:24.145Z,9.745524
2022-12-14T10:16:24.170Z,9.745540
2022-12-14T10:17:24.131Z,9.745582
2022-12-14T10:18:57.485Z,9.745521
2022-12-14T10:19:26.123Z,9.745373
2022-12-14T10:20:24.110Z,9.745473
2022-12-14T10:21:24.102Z,9.745567
2022-12-14T10:22:24.094Z,9.745472
2022-12-14T10:23:24.135Z,9.745540
2022-12-14T10:24:24.082Z,9.745513
2022-12-14T10:25:24.072Z,9.745448
2022-12-14T10:26:24.071Z,9.745502
2022-12-14T10:27:24.057Z,9.745446
2022-12-14T10:28:24.078Z,9.745503
2022-12-14T10:29:24.040Z,9.745522
2022-12-14T10:30:24.038Z,9.745551
2022-12-14T10:31:24.056Z,9.745386
2022-12-14T10:32:24.014Z,9.745538
2022-12-14T10:33:24.019Z,9.745591
2022-12-14T10:34:24.041Z,9.745543
2022-12-14T10:35:23.993Z,9.745490
2022-12-14T10:36:23.987Z,9.745532
2022-12-14T10:37:23.980Z,9.745564
2022-12-14T10:38:24.000Z,9.745485
2022-12-14T10:39:23.960Z,9.745438
2022-12-14T10:40:33.050Z,9.745514
2022-12-14T10:41:25.959Z,9.745544
2022-12-14T10:42:23.944Z,9.745406
2022-12-14T10:43:23.940Z,9.745620
2022-12-14T10:44:23.951Z,9.745628
2022-12-14T10:45:40.743Z,9.745668
2022-12-14T10:46:26.011Z,9.745558
2022-12-14T10:47:23.913Z,9.745475
2022-12-14T10:48:23.901Z,9.745469
2022-12-14T10:49:23.922Z,9.745578
2022-12-14T10:50:23.882Z,9.745422
2022-12-14T10:51:23.880Z,9.745237
2022-12-14T10:52:23.874Z,9.745438
2022-12-14T10:53:23.888Z,9.745739
2022-12-14T10:54:23.880Z,9.745664
2022-12-14T10:55:23.854Z,9.745589
2022-12-14T10:56:23.863Z,9.745659
2022-12-14T10:57:23.849Z,9.745502
2022-12-14T10:58:23.826Z,9.745521
2022-12-14T10:59:23.862Z,9.745150
2022-12-14T11:00:24.124Z,9.745207
2022-12-14T11:01:23.894Z,9.745312
2022-12-14T11:02:23.994Z,9.745439
2022-12-14T11:03:23.850Z,9.745425
2022-12-14T11:04:23.804Z,9.745485
2022-12-14T11:05:23.782Z,9.745296
2022-12-14T11:06:23.771Z,9.745111
2022-12-14T11:07:23.764Z,9.745569
2022-12-14T11:08:23.746Z,9.745602
2022-12-14T11:09:24.778Z,9.745622
2022-12-14T11:10:23.747Z,9.745599
2022-12-14T11:11:23.904Z,9.745634
2022-12-14T11:12:23.734Z,9.745420
2022-12-14T11:13:23.717Z,9.745449
2022-12-14T11:14:23.745Z,9.745631
2022-12-14T11:15:23.706Z,9.745618
2022-12-14T11:16:23.796Z,9.745868
2022-12-14T11:17:23.754Z,9.745586
2022-12-14T11:18:23.733Z,9.745486
2022-12-14T11:19:23.705Z,9.745617
2022-12-14T11:20:23.663Z,9.745630
2022-12-14T11:21:23.657Z,9.745431
2022-12-14T11:22:23.651Z,9.745510
2022-12-14T11:23:23.643Z,9.745543
2022-12-14T11:24:23.637Z,9.745549
2022-12-14T11:25:23.656Z,9.745516
2022-12-14T11:26:23.616Z,9.745493
2022-12-14T11:27:23.614Z,9.745358
2022-12-14T11:28:23.611Z,9.745547
2022-12-14T11:29:23.599Z,9.745513
2022-12-14T11:30:23.776Z,9.745476
2022-12-14T11:31:23.650Z,9.745558
2022-12-14T11:32:23.573Z,9.745383
2022-12-14T11:33:23.569Z,9.745508
2022-12-14T11:34:23.557Z,9.745448
2022-12-14T11:35:23.576Z,9.746122
2022-12-14T11:36:23.561Z,9.745618
2022-12-14T11:37:23.541Z,9.745508
2022-12-14T11:38:23.528Z,9.745834
2022-12-14T11:39:23.522Z,9.745761
2022-12-14T11:40:23.547Z,9.745615
2022-12-14T11:41:23.505Z,9.745351
2022-12-14T11:42:23.499Z,9.745328
2022-12-14T11:43:23.490Z,9.745267
2022-12-14T11:44:23.487Z,9.745175